createdAt,value
2023-03-22T00:02:34.447Z,16.87
2023-03-22T00:05:21.861Z,16.97
2023-03-22T00:08:09.913Z,16.33
2023-03-22T00:10:57.309Z,17.07
2023-03-22T00:13:46.950Z,17.00
2023-03-22T00:16:34.382Z,16.20
2023-03-22T00:19:21.775Z,15.83
2023-03-22T00:22:09.195Z,15.63
2023-03-22T00:24:56.632Z,16.00
2023-03-22T00:27:44.473Z,16.30
2023-03-22T00:30:31.848Z,17.20
2023-03-22T00:33:19.199Z,16.67
2023-03-22T00:36:08.611Z,15.63
2023-03-22T00:38:55.945Z,16.20
2023-03-22T00:41:43.309Z,16.20
2023-03-22T00:44:30.737Z,16.50
2023-03-22T00:47:18.106Z,16.13
2023-03-22T00:50:06.533Z,16.27
2023-03-22T00:52:53.914Z,16.17
2023-03-22T00:55:41.265Z,16.83
2023-03-22T00:58:28.614Z,17.97
2023-03-22T01:01:16.037Z,16.50
2023-03-22T01:04:04.961Z,17.30
2023-03-22T01:06:59.269Z,16.67
2023-03-22T01:09:46.689Z,15.70
2023-03-22T01:12:34.076Z,17.20
2023-03-22T01:15:23.196Z,17.40
2023-03-22T01:18:10.659Z,17.33
2023-03-22T01:20:59.440Z,16.03
2023-03-22T01:23:46.814Z,17.17
2023-03-22T01:26:35.623Z,17.40
2023-03-22T01:29:23.175Z,17.57
2023-03-22T01:32:10.778Z,18.27
2023-03-22T01:34:58.150Z,17.93
2023-03-22T01:37:45.604Z,16.53
2023-03-22T01:40:33.107Z,16.53
2023-03-22T01:43:20.769Z,17.90
2023-03-22T01:46:08.697Z,18.57
2023-03-22T01:48:56.247Z,18.23
2023-03-22T01:51:45.342Z,17.53
2023-03-22T01:54:39.155Z,17.97
2023-03-22T01:57:26.681Z,17.60
2023-03-22T02:00:15.778Z,17.43
2023-03-22T02:03:03.318Z,19.57
2023-03-22T02:05:50.807Z,17.93
2023-03-22T02:08:40.497Z,16.20
2023-03-22T02:11:44.333Z,18.17
2023-03-22T02:14:53.065Z,17.97
2023-03-22T02:17:51.316Z,17.70
2023-03-22T02:20:39.826Z,18.13
2023-03-22T02:23:38.458Z,17.47
2023-03-22T02:26:46.887Z,17.20
2023-03-22T02:29:38.851Z,17.50
2023-03-22T02:32:45.504Z,17.73
2023-03-22T02:35:32.895Z,16.90
2023-03-22T02:38:42.351Z,17.27
2023-03-22T02:41:47.742Z,18.40
2023-03-22T02:44:43.135Z,21.07
2023-03-22T02:47:42.464Z,23.37
2023-03-22T02:50:44.802Z,18.40
2023-03-22T02:53:51.142Z,20.27
2023-03-22T02:56:47.576Z,18.90
2023-03-22T02:59:38.225Z,25.17
2023-03-22T03:02:27.531Z,20.37
2023-03-22T03:05:16.396Z,21.93
2023-03-22T03:08:04.608Z,17.83
2023-03-22T03:10:52.506Z,17.73
2023-03-22T03:13:39.863Z,17.27
2023-03-22T03:16:29.864Z,16.47
2023-03-22T03:19:25.205Z,20.23
2023-03-22T03:22:36.174Z,17.23
2023-03-22T03:25:23.551Z,16.80
2023-03-22T03:28:13.703Z,17.13
2023-03-22T03:31:04.246Z,16.77
2023-03-22T03:33:55.477Z,17.03
2023-03-22T03:36:45.252Z,17.00
2023-03-22T03:39:34.567Z,20.00
2023-03-22T03:42:23.326Z,23.90
2023-03-22T03:45:10.950Z,36.33
2023-03-22T03:48:00.913Z,28.50
2023-03-22T03:50:50.271Z,31.83
2023-03-22T03:53:37.673Z,30.73
2023-03-22T03:56:25.055Z,21.70
2023-03-22T03:59:12.501Z,24.63
2023-03-22T04:02:00.568Z,34.53
2023-03-22T04:04:48.031Z,32.50
2023-03-22T04:07:35.539Z,20.83
2023-03-22T04:10:23.330Z,24.87
2023-03-22T04:13:10.817Z,18.03
2023-03-22T04:16:01.910Z,16.33
2023-03-22T04:18:49.265Z,16.90
2023-03-22T04:21:36.599Z,16.07
2023-03-22T04:24:23.952Z,15.87
2023-03-22T04:27:11.259Z,15.07
2023-03-22T04:30:00.906Z,14.73
2023-03-22T04:32:48.790Z,14.00
2023-03-22T04:35:36.158Z,15.03
2023-03-22T04:38:25.207Z,14.60
2023-03-22T04:41:12.719Z,13.47
2023-03-22T04:44:03.307Z,14.13
2023-03-22T04:46:50.723Z,13.80
2023-03-22T04:49:38.505Z,13.73
2023-03-22T04:52:26.380Z,14.03
2023-03-22T04:55:13.722Z,13.63
2023-03-22T04:58:01.135Z,13.07
2023-03-22T05:00:48.855Z,13.27
2023-03-22T05:03:37.201Z,13.13
2023-03-22T05:06:24.653Z,13.13
2023-03-22T05:09:12.580Z,13.30
2023-03-22T05:11:59.949Z,12.73
2023-03-22T05:14:47.369Z,12.23
2023-03-22T05:17:34.788Z,13.17
2023-03-22T05:20:22.188Z,13.07
2023-03-22T05:23:10.063Z,12.10
2023-03-22T05:25:58.222Z,12.10
2023-03-22T05:28:45.909Z,12.73
2023-03-22T05:31:34.473Z,12.43
2023-03-22T05:34:21.941Z,11.53
2023-03-22T05:37:09.312Z,12.23
2023-03-22T05:39:56.774Z,11.90
2023-03-22T05:42:44.659Z,11.33
2023-03-22T05:45:32.514Z,11.97
2023-03-22T05:48:19.933Z,12.17
2023-03-22T05:51:13.383Z,12.33
2023-03-22T05:54:00.804Z,13.10
2023-03-22T05:56:48.286Z,12.00
2023-03-22T05:59:35.676Z,12.70
2023-03-22T06:02:23.141Z,11.17
2023-03-22T06:05:11.212Z,11.90
2023-03-22T06:07:59.090Z,12.00
2023-03-22T06:10:48.935Z,10.50
2023-03-22T06:13:37.285Z,11.07
2023-03-22T06:16:24.681Z,10.43
2023-03-22T06:19:12.054Z,10.93
2023-03-22T06:21:59.454Z,10.70
2023-03-22T06:24:46.922Z,10.03
2023-03-22T06:27:34.390Z,9.93
2023-03-22T06:30:21.743Z,10.67
2023-03-22T06:33:09.128Z,10.47
2023-03-22T06:35:56.492Z,10.53
2023-03-22T06:38:43.986Z,21.40
2023-03-22T06:41:31.583Z,20.90
2023-03-22T06:44:19.294Z,10.90
2023-03-22T06:47:06.666Z,9.27
2023-03-22T06:49:54.289Z,8.85
2023-03-22T06:52:41.701Z,8.73
2023-03-22T06:55:33.145Z,8.73
2023-03-22T06:58:20.626Z,8.63
2023-03-22T07:01:08.018Z,7.90
2023-03-22T07:03:55.382Z,8.03
2023-03-22T07:06:42.774Z,8.00
2023-03-22T07:09:30.241Z,7.80
2023-03-22T07:12:18.581Z,7.40
2023-03-22T07:15:06.277Z,7.40
2023-03-22T07:17:53.601Z,7.97
2023-03-22T07:20:42.299Z,7.70
2023-03-22T07:23:30.290Z,8.07
2023-03-22T07:26:17.658Z,7.80
2023-03-22T07:29:05.038Z,7.57
2023-03-22T07:31:52.479Z,8.03
2023-03-22T07:34:39.862Z,7.57
2023-03-22T07:37:27.239Z,7.50
2023-03-22T07:40:15.307Z,7.90
2023-03-22T07:43:02.734Z,8.03
2023-03-22T07:45:50.848Z,8.07
2023-03-22T07:48:39.213Z,7.73
2023-03-22T07:51:26.797Z,8.00
2023-03-22T07:54:30.526Z,7.73
2023-03-22T07:57:20.201Z,8.53
2023-03-22T08:00:10.878Z,7.23
2023-03-22T08:02:58.406Z,9.07
2023-03-22T08:05:45.854Z,8.63
2023-03-22T08:08:33.521Z,8.30
2023-03-22T08:11:20.961Z,7.50
2023-03-22T08:14:08.929Z,8.43
2023-03-22T08:16:56.391Z,8.17
2023-03-22T08:19:43.745Z,8.20
2023-03-22T08:22:31.148Z,8.40
2023-03-22T08:25:18.571Z,8.50
2023-03-22T08:28:06.129Z,9.20
2023-03-22T08:30:53.522Z,9.20
2023-03-22T08:33:40.934Z,8.47
2023-03-22T08:36:29.053Z,10.07
2023-03-22T08:39:16.437Z,9.77
2023-03-22T08:42:04.031Z,10.17
2023-03-22T08:44:52.468Z,11.10
2023-03-22T08:47:40.100Z,12.63
2023-03-22T08:50:27.448Z,11.63
2023-03-22T08:53:14.810Z,14.20
2023-03-22T08:56:02.380Z,11.40
2023-03-22T08:58:49.732Z,11.40
2023-03-22T09:01:38.003Z,11.57
2023-03-22T09:04:26.187Z,11.90
2023-03-22T09:07:13.702Z,11.27
2023-03-22T09:10:01.814Z,11.30
2023-03-22T09:12:49.210Z,12.20
2023-03-22T09:15:37.022Z,11.77
2023-03-22T09:18:25.884Z,10.93
2023-03-22T09:21:13.367Z,10.83
2023-03-22T09:24:00.833Z,10.47
2023-03-22T09:26:48.356Z,9.73
2023-03-22T09:29:35.857Z,10.47
2023-03-22T09:32:23.278Z,10.50
2023-03-22T09:35:10.772Z,10.13
2023-03-22T09:37:59.986Z,11.30
2023-03-22T09:40:53.347Z,9.73
2023-03-22T09:43:43.006Z,9.23
2023-03-22T09:46:37.969Z,9.60
2023-03-22T09:49:26.923Z,9.60
2023-03-22T09:52:16.076Z,9.67
2023-03-22T09:55:03.532Z,9.87
2023-03-22T09:57:55.813Z,8.77
2023-03-22T10:00:48.937Z,7.90
2023-03-22T10:03:36.463Z,7.27
2023-03-22T10:06:26.045Z,6.93
2023-03-22T10:09:14.011Z,6.63
2023-03-22T10:12:11.402Z,6.93
2023-03-22T10:15:04.840Z,6.73
2023-03-22T10:17:53.906Z,6.23
2023-03-22T10:20:44.601Z,5.13
2023-03-22T10:23:52.935Z,5.47
2023-03-22T10:26:42.279Z,4.97
2023-03-22T10:29:39.528Z,4.37
2023-03-22T10:32:32.601Z,4.93
2023-03-22T10:35:20.304Z,4.73
2023-03-22T10:38:10.168Z,4.70
2023-03-22T10:40:58.997Z,4.50
2023-03-22T10:43:48.802Z,3.83
2023-03-22T10:46:38.817Z,3.57
2023-03-22T10:49:31.524Z,3.97
2023-03-22T10:52:36.832Z,3.70
2023-03-22T10:55:24.807Z,3.87
2023-03-22T10:58:12.476Z,4.13
2023-03-22T11:01:03.797Z,3.47
2023-03-22T11:03:52.722Z,4.00
2023-03-22T11:06:48.776Z,3.27
2023-03-22T11:09:36.132Z,4.37
2023-03-22T11:12:23.679Z,3.80
2023-03-22T11:15:25.217Z,4.40
2023-03-22T11:18:15.653Z,3.10
2023-03-22T11:21:12.022Z,4.00
2023-03-22T11:24:04.853Z,3.40
2023-03-22T11:27:11.266Z,3.40
2023-03-22T11:30:00.165Z,3.10
2023-03-22T11:32:47.911Z,3.57
2023-03-22T11:35:36.678Z,3.10
2023-03-22T11:38:26.237Z,3.30
2023-03-22T11:41:35.261Z,3.10
2023-03-22T11:44:23.271Z,3.37
2023-03-22T11:47:13.055Z,2.23
2023-03-22T11:50:04.365Z,2.87
2023-03-22T11:52:53.919Z,2.80
2023-03-22T11:55:42.502Z,2.50
2023-03-22T11:58:42.612Z,2.60
2023-03-22T12:01:38.829Z,2.43
2023-03-22T12:04:28.142Z,2.40
2023-03-22T12:07:17.784Z,2.40
2023-03-22T12:10:13.694Z,2.87
2023-03-22T12:13:04.891Z,2.50
2023-03-22T12:16:12.650Z,3.00
2023-03-22T12:19:18.264Z,2.50
2023-03-22T12:22:10.926Z,2.80
2023-03-22T12:24:59.267Z,2.80
2023-03-22T12:27:49.073Z,3.07
2023-03-22T12:30:47.816Z,2.60
2023-03-22T12:33:38.459Z,2.67
2023-03-22T12:36:49.359Z,2.70
2023-03-22T12:39:39.798Z,2.67
2023-03-22T12:42:40.670Z,2.87
2023-03-22T12:45:39.383Z,3.13
2023-03-22T12:48:29.972Z,2.90
2023-03-22T12:51:17.419Z,3.23
2023-03-22T12:54:05.827Z,3.10
2023-03-22T12:56:54.079Z,3.40
2023-03-22T12:59:43.156Z,3.80
2023-03-22T13:02:34.214Z,3.23
2023-03-22T13:05:21.677Z,3.20
2023-03-22T13:08:10.180Z,4.03
2023-03-22T13:10:57.540Z,3.83
2023-03-22T13:13:46.545Z,4.15
2023-03-22T13:16:52.469Z,4.17
2023-03-22T13:19:40.009Z,3.73
2023-03-22T13:22:28.787Z,4.40
2023-03-22T13:25:19.531Z,3.70
2023-03-22T13:28:21.969Z,4.27
2023-03-22T13:31:29.412Z,4.57
2023-03-22T13:34:19.265Z,5.00
2023-03-22T13:37:11.193Z,5.57
2023-03-22T13:40:02.090Z,5.57
2023-03-22T13:42:51.002Z,5.70
2023-03-22T13:45:57.540Z,5.07
2023-03-22T13:48:50.582Z,4.60
2023-03-22T13:51:41.373Z,5.57
2023-03-22T13:54:35.123Z,5.00
2023-03-22T13:57:39.613Z,4.87
2023-03-22T14:00:30.241Z,5.80
2023-03-22T14:03:25.251Z,5.80
2023-03-22T14:06:19.496Z,5.77
2023-03-22T14:09:16.054Z,6.50
2023-03-22T14:12:09.274Z,6.30
2023-03-22T14:14:58.131Z,7.10
2023-03-22T14:18:05.887Z,6.30
2023-03-22T14:21:06.030Z,6.50
